createdAt,value
2017-12-06T00:01:23.363Z,100936.62
2017-12-06T00:03:50.957Z,100930.48
2017-12-06T00:06:18.448Z,100928.95
2017-12-06T00:08:46.244Z,100934.08
2017-12-06T00:11:13.739Z,100936.09
2017-12-06T00:13:46.866Z,100938.73
2017-12-06T00:16:14.455Z,100936.00
2017-12-06T00:18:42.131Z,100928.66
2017-12-06T00:21:09.612Z,100936.52
2017-12-06T00:23:37.103Z,100937.89
2017-12-06T00:26:04.659Z,100924.68
2017-12-06T00:28:32.338Z,100936.22
2017-12-06T00:30:59.869Z,100929.84
2017-12-06T00:33:27.407Z,100933.41
2017-12-06T00:35:54.905Z,100945.95
2017-12-06T00:38:22.421Z,100947.90
2017-12-06T00:40:49.930Z,100936.95
2017-12-06T00:43:17.419Z,100938.77
2017-12-06T00:45:44.910Z,100940.84
2017-12-06T00:48:12.379Z,100946.17
2017-12-06T00:50:39.868Z,100943.03
2017-12-06T00:53:07.348Z,100951.55
2017-12-06T00:55:34.904Z,100955.22
2017-12-06T00:58:02.398Z,100951.03
2017-12-06T01:00:29.874Z,100956.70
2017-12-06T01:02:57.392Z,100963.81
2017-12-06T01:05:24.912Z,101004.33
2017-12-06T01:07:52.426Z,100962.01
2017-12-06T01:10:19.945Z,100968.39
2017-12-06T01:12:47.528Z,100974.34
2017-12-06T01:15:15.252Z,100976.90
2017-12-06T01:17:42.743Z,100960.44
2017-12-06T01:20:10.234Z,100978.60
2017-12-06T01:22:37.707Z,100968.90
2017-12-06T01:25:05.194Z,100985.33
2017-12-06T01:27:32.671Z,100983.17
2017-12-06T01:30:00.153Z,100973.06
2017-12-06T01:32:27.653Z,100972.06
2017-12-06T01:34:55.167Z,100975.50
2017-12-06T01:37:22.642Z,100972.20
2017-12-06T01:39:50.115Z,100969.52
2017-12-06T01:42:17.596Z,100961.71
2017-12-06T01:44:45.085Z,100968.95
2017-12-06T01:47:12.576Z,100967.89
2017-12-06T01:49:40.049Z,100971.77
2017-12-06T01:52:07.547Z,100976.14
2017-12-06T01:54:35.035Z,100958.79
2017-12-06T01:57:02.526Z,100961.33
2017-12-06T01:59:30.066Z,100960.90
2017-12-06T02:01:57.556Z,100997.73
2017-12-06T02:04:25.071Z,100956.63
2017-12-06T02:06:52.604Z,100960.98
2017-12-06T02:09:20.106Z,100964.44
2017-12-06T02:11:47.602Z,100980.82
2017-12-06T02:14:15.134Z,100969.22
2017-12-06T02:16:42.699Z,100954.50
2017-12-06T02:19:10.195Z,100957.49
2017-12-06T02:21:37.676Z,100953.62
2017-12-06T02:24:05.155Z,100948.41
2017-12-06T02:26:32.651Z,100947.81
2017-12-06T02:29:00.128Z,100957.55
2017-12-06T02:31:27.608Z,100946.47
2017-12-06T02:33:55.088Z,100936.28
2017-12-06T02:36:22.569Z,100945.28
2017-12-06T02:38:50.160Z,100939.25
2017-12-06T02:41:29.392Z,100941.38
2017-12-06T02:44:08.684Z,100929.60
2017-12-06T02:46:36.173Z,100929.47
2017-12-06T02:49:03.645Z,100933.25
2017-12-06T02:51:31.108Z,100933.28
2017-12-06T02:53:58.594Z,100923.25
2017-12-06T02:56:26.079Z,100922.92
2017-12-06T02:58:53.634Z,100923.52
2017-12-06T03:01:21.116Z,100916.38
2017-12-06T03:03:48.603Z,100919.16
2017-12-06T03:06:16.138Z,100924.41
2017-12-06T03:08:43.607Z,100927.47
2017-12-06T03:11:11.148Z,100918.41
2017-12-06T03:13:38.629Z,100937.06
2017-12-06T03:16:06.720Z,100921.33
2017-12-06T03:18:34.227Z,100911.23
2017-12-06T03:21:01.728Z,100930.22
2017-12-06T03:23:29.223Z,100920.55
2017-12-06T03:25:56.689Z,100921.87
2017-12-06T03:28:24.165Z,100925.63
2017-12-06T03:30:51.709Z,100932.03
2017-12-06T03:33:19.212Z,100924.01
2017-12-06T03:35:46.700Z,100917.02
2017-12-06T03:38:14.291Z,100910.83
2017-12-06T03:40:41.794Z,100901.86
2017-12-06T03:43:09.270Z,100895.45
2017-12-06T03:45:36.833Z,100900.94
2017-12-06T03:48:04.347Z,100915.77
2017-12-06T03:50:31.888Z,100889.98
2017-12-06T03:52:59.366Z,100914.52
2017-12-06T03:55:26.903Z,100900.93
2017-12-06T03:57:54.403Z,100916.55
2017-12-06T04:00:21.904Z,100911.30
2017-12-06T04:02:49.383Z,100938.33
2017-12-06T04:05:16.895Z,100928.02
2017-12-06T04:07:44.372Z,100922.05
2017-12-06T04:10:11.913Z,100928.68
2017-12-06T04:12:39.455Z,100936.12
2017-12-06T04:15:06.947Z,100939.61
2017-12-06T04:17:34.429Z,100928.61
2017-12-06T04:20:01.959Z,100931.80
2017-12-06T04:22:29.939Z,100948.72
2017-12-06T04:24:57.426Z,100926.36
2017-12-06T04:27:24.906Z,100926.91
2017-12-06T04:29:52.391Z,100917.14
2017-12-06T04:32:19.944Z,100920.85
2017-12-06T04:34:47.412Z,100924.33
2017-12-06T04:37:14.911Z,100916.33
2017-12-06T04:39:42.399Z,100925.23
2017-12-06T04:42:11.301Z,100924.41
2017-12-06T04:44:38.902Z,100927.41
2017-12-06T04:47:06.368Z,100916.79
2017-12-06T04:49:33.846Z,100920.20
2017-12-06T04:52:01.354Z,100942.50
2017-12-06T04:54:28.840Z,100912.95
2017-12-06T04:56:56.303Z,100920.47
2017-12-06T04:59:23.772Z,100900.05
2017-12-06T05:01:51.244Z,100904.39
2017-12-06T05:04:18.754Z,100896.37
2017-12-06T05:06:46.429Z,100901.77
2017-12-06T05:09:14.156Z,100918.02
2017-12-06T05:11:42.013Z,100903.47
2017-12-06T05:14:09.499Z,100908.34
2017-12-06T05:16:36.998Z,100907.16
2017-12-06T05:19:04.475Z,100905.58
2017-12-06T05:21:32.479Z,100927.47
2017-12-06T05:23:59.952Z,100908.96
2017-12-06T05:26:27.421Z,100906.94
2017-12-06T05:28:54.900Z,100934.50
2017-12-06T05:31:22.412Z,100918.17
2017-12-06T05:33:49.876Z,100920.34
2017-12-06T05:36:17.373Z,100928.69
2017-12-06T05:38:44.859Z,100915.13
2017-12-06T05:41:12.327Z,100916.97
2017-12-06T05:43:39.799Z,100921.77
2017-12-06T05:46:07.278Z,100917.47
2017-12-06T05:48:34.769Z,100926.55
2017-12-06T05:51:02.264Z,100949.42
2017-12-06T05:53:29.753Z,100917.37
2017-12-06T05:55:57.319Z,100928.87
2017-12-06T05:58:24.816Z,100910.97
2017-12-06T06:00:52.290Z,100907.29
2017-12-06T06:03:19.775Z,100918.23
2017-12-06T06:05:47.252Z,100922.40
2017-12-06T06:08:14.790Z,100919.39
2017-12-06T06:10:42.276Z,100930.55
2017-12-06T06:13:09.760Z,100926.72
2017-12-06T06:15:37.243Z,100919.16
2017-12-06T06:18:04.757Z,100918.28
2017-12-06T06:20:32.349Z,100921.13
2017-12-06T06:22:59.854Z,100926.69
2017-12-06T06:25:27.365Z,100920.26
2017-12-06T06:27:54.887Z,100931.83
2017-12-06T06:30:22.510Z,100909.64
2017-12-06T06:32:50.087Z,100912.64
2017-12-06T06:35:17.607Z,100913.23
2017-12-06T06:37:45.095Z,100922.17
2017-12-06T06:40:12.612Z,100926.39
2017-12-06T06:42:40.095Z,100916.26
2017-12-06T06:45:07.582Z,100922.52
2017-12-06T06:47:35.097Z,100912.83
2017-12-06T06:50:02.604Z,100925.50
2017-12-06T06:52:30.338Z,100943.06
2017-12-06T06:54:57.803Z,100926.17
2017-12-06T06:57:25.299Z,100921.03
2017-12-06T06:59:52.786Z,100924.79
2017-12-06T07:02:20.251Z,100929.44
2017-12-06T07:04:47.757Z,100926.70
2017-12-06T07:07:15.332Z,100929.73
2017-12-06T07:09:42.857Z,100938.90
2017-12-06T07:12:10.427Z,100916.39
2017-12-06T07:14:37.896Z,100927.81
2017-12-06T07:17:05.395Z,100929.63
2017-12-06T07:19:38.528Z,100929.91
2017-12-06T07:22:06.060Z,100921.25
2017-12-06T07:24:33.534Z,100920.44
2017-12-06T07:27:01.023Z,100920.23
2017-12-06T07:29:28.514Z,100927.02
2017-12-06T07:31:56.009Z,100948.19
2017-12-06T07:34:23.499Z,100924.89
2017-12-06T07:36:50.977Z,100914.54
2017-12-06T07:39:18.547Z,100935.30
2017-12-06T07:41:46.053Z,100920.95
2017-12-06T07:44:13.548Z,100942.38
2017-12-06T07:46:41.040Z,100922.19
2017-12-06T07:49:08.530Z,100921.80
2017-12-06T07:51:36.013Z,100929.53
2017-12-06T07:54:03.510Z,100947.34
2017-12-06T07:56:31.227Z,100918.64
2017-12-06T07:59:00.686Z,100905.52
2017-12-06T08:01:28.151Z,100905.47
2017-12-06T08:03:55.644Z,100902.52
2017-12-06T08:06:23.211Z,100923.51
2017-12-06T08:08:50.692Z,100912.94
2017-12-06T08:11:18.155Z,100891.18
2017-12-06T08:13:45.638Z,100909.00
2017-12-06T08:16:13.221Z,100883.25
2017-12-06T08:18:40.913Z,100892.31
2017-12-06T08:21:08.427Z,100908.00
2017-12-06T08:23:35.900Z,100906.17
2017-12-06T08:26:03.391Z,100905.62
2017-12-06T08:28:30.901Z,100930.48
2017-12-06T08:30:58.380Z,100902.50
2017-12-06T08:33:25.860Z,100909.73
2017-12-06T08:35:53.396Z,100906.86
2017-12-06T08:38:20.896Z,100924.47
2017-12-06T08:40:48.373Z,100882.95
2017-12-06T08:43:15.870Z,100897.92
2017-12-06T08:45:43.351Z,100926.31
2017-12-06T08:48:10.894Z,100912.59
2017-12-06T08:50:38.513Z,100917.38
2017-12-06T08:53:05.984Z,100925.31
2017-12-06T08:55:33.450Z,100916.13
2017-12-06T08:58:00.989Z,100913.51
2017-12-06T09:00:28.476Z,100931.77
2017-12-06T09:02:55.938Z,100917.88
2017-12-06T09:05:23.413Z,100935.74
2017-12-06T09:07:50.888Z,100921.30
2017-12-06T09:10:19.187Z,100921.20
2017-12-06T09:12:46.681Z,100920.70
2017-12-06T09:15:14.272Z,100918.66
2017-12-06T09:17:41.831Z,100917.39
2017-12-06T09:20:09.309Z,100912.49
2017-12-06T09:22:36.767Z,100928.96
2017-12-06T09:25:04.257Z,100921.27
2017-12-06T09:27:31.727Z,100942.94
2017-12-06T09:29:59.206Z,100931.69
2017-12-06T09:32:26.671Z,100970.80
2017-12-06T09:34:54.193Z,100952.75
2017-12-06T09:37:21.686Z,100947.27
2017-12-06T09:39:49.205Z,100955.60
2017-12-06T09:42:16.684Z,100960.41
2017-12-06T09:44:44.163Z,100916.75
2017-12-06T09:47:11.634Z,100925.96
2017-12-06T09:49:39.122Z,100935.68
2017-12-06T09:52:06.596Z,100929.66
2017-12-06T09:54:34.071Z,100935.79
2017-12-06T09:57:01.596Z,100908.09
2017-12-06T09:59:29.055Z,100913.95
2017-12-06T10:01:56.522Z,100894.87
2017-12-06T10:04:24.023Z,100891.50
2017-12-06T10:06:51.559Z,100893.46
2017-12-06T10:09:19.052Z,100890.08
2017-12-06T10:11:46.533Z,100896.70
2017-12-06T10:14:14.080Z,100913.36
2017-12-06T10:16:41.596Z,100930.28
2017-12-06T10:19:09.098Z,100887.36
2017-12-06T10:21:36.562Z,100881.41
2017-12-06T10:24:04.035Z,100865.05
2017-12-06T10:26:32.067Z,100873.95
2017-12-06T10:28:59.543Z,100871.42
2017-12-06T10:31:27.051Z,100877.59
2017-12-06T10:33:54.526Z,100875.92
2017-12-06T10:36:22.910Z,100908.88
2017-12-06T10:38:50.413Z,100878.43
2017-12-06T10:41:17.945Z,100877.91
2017-12-06T10:43:45.426Z,100891.93
2017-12-06T10:46:12.954Z,100876.73
2017-12-06T10:48:40.569Z,100876.84
2017-12-06T10:51:08.037Z,100897.52
2017-12-06T10:53:35.520Z,100869.95
2017-12-06T10:56:03.055Z,100857.06
2017-12-06T10:58:31.995Z,100885.98
2017-12-06T11:00:59.483Z,100879.78
2017-12-06T11:03:28.561Z,100861.23
2017-12-06T11:05:56.050Z,100864.41
2017-12-06T11:08:23.484Z,100861.02
2017-12-06T11:10:50.990Z,100844.23
2017-12-06T11:13:18.472Z,100865.05
2017-12-06T11:15:45.952Z,100832.01
2017-12-06T11:18:13.435Z,100837.19
2017-12-06T11:20:40.920Z,100846.56
2017-12-06T11:23:08.396Z,100841.32
2017-12-06T11:25:35.904Z,100826.97
2017-12-06T11:28:03.429Z,100831.20
2017-12-06T11:30:31.070Z,100850.59
2017-12-06T11:32:58.548Z,100820.53
2017-12-06T11:35:26.024Z,100816.48
2017-12-06T11:37:53.516Z,100804.68
2017-12-06T11:40:20.987Z,100881.97
2017-12-06T11:42:48.475Z,100825.37
2017-12-06T11:45:16.044Z,100805.41
2017-12-06T11:47:43.550Z,100799.41
2017-12-06T11:52:37.813Z,100808.05
2017-12-06T11:55:05.273Z,100811.15
2017-12-06T11:57:32.744Z,100821.14
2017-12-06T12:00:00.231Z,100799.63
2017-12-06T12:02:27.692Z,100782.95
2017-12-06T12:04:56.299Z,100791.41
2017-12-06T12:07:23.793Z,100777.88
2017-12-06T12:09:51.268Z,100773.79
2017-12-06T12:12:18.785Z,100786.45
2017-12-06T12:14:46.294Z,100770.08
2017-12-06T12:17:13.855Z,100778.16
2017-12-06T12:19:41.434Z,100762.08
2017-12-06T12:22:08.920Z,100777.88
2017-12-06T12:24:36.403Z,100767.66
2017-12-06T12:27:03.900Z,100767.08
2017-12-06T12:29:31.496Z,100777.13
2017-12-06T12:31:59.029Z,100782.59
2017-12-06T12:34:26.527Z,100770.89
2017-12-06T12:36:54.350Z,100773.62
2017-12-06T12:39:21.844Z,100758.32
2017-12-06T12:41:49.327Z,100778.34
2017-12-06T12:44:16.915Z,100760.99
2017-12-06T12:46:44.438Z,100776.84
2017-12-06T12:49:11.970Z,100764.31
2017-12-06T12:51:39.575Z,100747.39
2017-12-06T12:54:07.047Z,100768.38
2017-12-06T12:56:35.536Z,100746.45
2017-12-06T12:59:03.095Z,100754.01
2017-12-06T13:01:30.592Z,100740.23
2017-12-06T13:03:58.083Z,100759.83
2017-12-06T13:06:25.851Z,100748.25
2017-12-06T13:08:53.336Z,100750.03
2017-12-06T13:11:20.827Z,100764.88
2017-12-06T13:13:48.394Z,100775.41
2017-12-06T13:16:16.015Z,100751.27
2017-12-06T13:18:44.024Z,100748.39
2017-12-06T13:21:11.490Z,100752.28
2017-12-06T13:23:38.979Z,100771.52
2017-12-06T13:26:06.465Z,100749.14
2017-12-06T13:28:34.244Z,100803.36
2017-12-06T13:31:01.787Z,100760.53
2017-12-06T13:33:29.278Z,100743.98
2017-12-06T13:35:56.747Z,100786.47
2017-12-06T13:38:24.240Z,100745.80
2017-12-06T13:40:51.722Z,100752.53
2017-12-06T13:43:19.364Z,100801.84
2017-12-06T13:45:46.836Z,100780.36
2017-12-06T13:48:14.351Z,100756.41
2017-12-06T13:50:41.858Z,100748.70
2017-12-06T13:53:09.355Z,100783.53
2017-12-06T13:55:36.871Z,100763.72
2017-12-06T13:58:04.382Z,100759.73
2017-12-06T14:00:31.879Z,100760.92
2017-12-06T14:02:59.489Z,100762.09
2017-12-06T14:05:26.978Z,100763.66
2017-12-06T14:07:54.466Z,100768.24
2017-12-06T14:10:21.960Z,100775.78
2017-12-06T14:12:50.729Z,100763.98
2017-12-06T14:15:18.239Z,100771.53
2017-12-06T14:17:45.780Z,100796.95
2017-12-06T14:20:13.427Z,100766.87
2017-12-06T14:22:40.952Z,100764.20
2017-12-06T14:25:08.438Z,100762.87
2017-12-06T14:27:35.956Z,100763.06
2017-12-06T14:30:03.475Z,100764.87
2017-12-06T14:32:31.448Z,100762.78
2017-12-06T14:34:58.934Z,100755.43
2017-12-06T14:37:26.470Z,100757.89
2017-12-06T14:39:53.933Z,100756.33
2017-12-06T14:42:21.414Z,100793.88
2017-12-06T14:44:48.910Z,100758.49
2017-12-06T14:47:16.394Z,100761.39
2017-12-06T14:49:43.868Z,100751.53
2017-12-06T14:52:11.439Z,100753.62
2017-12-06T14:54:38.940Z,100748.90
2017-12-06T14:57:06.807Z,100752.98
2017-12-06T14:59:34.357Z,100754.95
2017-12-06T15:02:01.832Z,100754.52
2017-12-06T15:04:29.316Z,100761.33
2017-12-06T15:06:56.789Z,100765.05
2017-12-06T15:09:24.260Z,100748.08
2017-12-06T15:11:51.972Z,100755.53
2017-12-06T15:14:19.620Z,100772.77
2017-12-06T15:16:47.143Z,100773.13
2017-12-06T15:19:14.635Z,100780.24
2017-12-06T15:21:42.089Z,100789.06
2017-12-06T15:24:09.643Z,100777.22
2017-12-06T15:26:37.152Z,100765.38
2017-12-06T15:29:04.770Z,100773.84
2017-12-06T15:31:32.260Z,100817.26
2017-12-06T15:34:00.671Z,100770.05
2017-12-06T15:36:28.364Z,100767.45
2017-12-06T15:38:55.891Z,100773.25
2017-12-06T15:41:23.502Z,100775.38
2017-12-06T15:43:51.003Z,100763.05
2017-12-06T15:46:18.524Z,100773.08
2017-12-06T15:48:46.144Z,100765.94
2017-12-06T15:51:13.830Z,100770.09
2017-12-06T15:53:41.344Z,100783.17
2017-12-06T15:56:08.839Z,100779.30
2017-12-06T15:58:36.361Z,100760.52
2017-12-06T16:01:03.949Z,100762.63
2017-12-06T16:03:31.494Z,100789.42
2017-12-06T16:05:59.265Z,100769.40
2017-12-06T16:08:26.822Z,100819.67
2017-12-06T16:10:54.307Z,100766.03
2017-12-06T16:13:21.935Z,100766.92
2017-12-06T16:15:49.467Z,100792.08
2017-12-06T16:18:17.682Z,100773.20
2017-12-06T16:20:45.182Z,100776.06
2017-12-06T16:23:12.714Z,100778.56
2017-12-06T16:25:40.252Z,100774.77
2017-12-06T16:28:07.830Z,100769.95
2017-12-06T16:30:35.613Z,100786.91
2017-12-06T16:33:03.108Z,100757.04
2017-12-06T16:35:42.294Z,100778.02
2017-12-06T16:38:09.794Z,100757.62
2017-12-06T16:40:38.048Z,100754.39
2017-12-06T16:43:05.595Z,100772.14
2017-12-06T16:45:33.093Z,100753.20
2017-12-06T16:48:00.586Z,100763.32
2017-12-06T16:50:28.145Z,100767.91
2017-12-06T16:52:55.628Z,100760.36
2017-12-06T16:55:23.192Z,100767.91
2017-12-06T16:57:50.871Z,100778.05
2017-12-06T17:00:18.440Z,100768.73
2017-12-06T17:02:45.966Z,100761.94
2017-12-06T17:05:13.546Z,100776.20
2017-12-06T17:07:41.077Z,100782.63
2017-12-06T17:10:08.586Z,100758.60
2017-12-06T17:12:36.176Z,100761.91
2017-12-06T17:15:03.687Z,100768.25
2017-12-06T17:17:31.199Z,100768.31
2017-12-06T17:19:58.738Z,100761.56
2017-12-06T17:22:26.240Z,100752.11
2017-12-06T17:24:53.727Z,100768.33
2017-12-06T17:27:21.236Z,100769.45
2017-12-06T17:30:00.482Z,100757.12
2017-12-06T17:32:28.015Z,100762.58
2017-12-06T17:34:55.516Z,100772.74
2017-12-06T17:37:23.044Z,100769.08
2017-12-06T17:39:50.534Z,100770.78
2017-12-06T17:42:18.065Z,100762.11
2017-12-06T17:44:45.596Z,100770.30
2017-12-06T17:47:13.099Z,100762.52
2017-12-06T17:49:40.626Z,100756.87
2017-12-06T17:52:08.226Z,100764.12
2017-12-06T17:54:35.776Z,100773.92
2017-12-06T17:57:05.815Z,100782.86
2017-12-06T17:59:33.398Z,100780.28
2017-12-06T18:02:00.904Z,100777.66
2017-12-06T18:04:28.756Z,100786.48
2017-12-06T18:06:56.238Z,100775.94
2017-12-06T18:09:23.783Z,100790.09
2017-12-06T18:11:51.284Z,100774.55
2017-12-06T18:14:18.882Z,100782.64
2017-12-06T18:16:46.423Z,100797.02
2017-12-06T18:19:13.955Z,100794.29
2017-12-06T18:21:41.453Z,100773.86
2017-12-06T18:24:09.025Z,100808.39
2017-12-06T18:26:36.578Z,100773.92
2017-12-06T18:29:04.244Z,100779.67
2017-12-06T18:31:31.735Z,100787.59
2017-12-06T18:33:59.223Z,100779.41
2017-12-06T18:36:27.015Z,100788.43
2017-12-06T18:38:54.486Z,100772.33
2017-12-06T18:41:21.977Z,100762.51
2017-12-06T18:43:49.517Z,100785.75
2017-12-06T18:46:16.988Z,100766.80
2017-12-06T18:48:47.470Z,100761.36
2017-12-06T18:51:15.865Z,100769.59
2017-12-06T18:53:43.332Z,100789.08
2017-12-06T18:56:10.814Z,100769.61
2017-12-06T18:58:38.291Z,100775.45
2017-12-06T19:01:05.749Z,100785.07
2017-12-06T19:03:33.264Z,100790.52
2017-12-06T19:06:00.773Z,100788.06
2017-12-06T19:08:28.219Z,100780.69
2017-12-06T19:10:55.706Z,100795.55
2017-12-06T19:13:23.170Z,100781.55
2017-12-06T19:15:50.642Z,100783.68
2017-12-06T19:18:18.131Z,100779.02
2017-12-06T19:20:45.607Z,100794.56
2017-12-06T19:23:13.999Z,100776.48
2017-12-06T19:25:41.529Z,100769.53
2017-12-06T19:28:09.488Z,100790.23
2017-12-06T19:30:36.949Z,100776.20
2017-12-06T19:33:04.423Z,100788.59
2017-12-06T19:35:31.984Z,100787.80
2017-12-06T19:37:59.481Z,100781.80
2017-12-06T19:40:27.019Z,100795.08
2017-12-06T19:42:54.505Z,100798.14
2017-12-06T19:45:21.984Z,100782.14
2017-12-06T19:47:49.511Z,100790.05
2017-12-06T19:50:16.997Z,100761.38
2017-12-06T19:52:44.457Z,100780.69
2017-12-06T19:55:11.971Z,100761.28
2017-12-06T19:57:39.566Z,100760.45
2017-12-06T20:00:07.155Z,100760.23
2017-12-06T20:02:35.618Z,100759.40
2017-12-06T20:05:03.089Z,100769.59
2017-12-06T20:07:30.681Z,100769.44
2017-12-06T20:09:58.167Z,100767.09
2017-12-06T20:12:26.654Z,100763.05
2017-12-06T20:14:54.194Z,100762.83
2017-12-06T20:17:21.734Z,100775.98
2017-12-06T20:19:49.301Z,100775.95
2017-12-06T20:22:17.650Z,100766.56
2017-12-06T20:24:48.080Z,100744.77
2017-12-06T20:27:17.329Z,100757.45
2017-12-06T20:29:44.855Z,100744.55
2017-12-06T20:32:12.372Z,100742.45
2017-12-06T20:34:39.839Z,100763.57
2017-12-06T20:37:07.317Z,100761.34
2017-12-06T20:39:34.824Z,100758.91
2017-12-06T20:42:02.368Z,100762.12
2017-12-06T20:44:29.930Z,100740.69
2017-12-06T20:46:57.402Z,100741.92
2017-12-06T20:49:24.882Z,100762.12
2017-12-06T20:51:52.356Z,100781.11
2017-12-06T20:54:19.871Z,100738.95
2017-12-06T20:56:47.334Z,100760.66
2017-12-06T20:59:14.796Z,100743.52
2017-12-06T21:01:42.282Z,100737.28
2017-12-06T21:04:09.736Z,100764.55
2017-12-06T21:06:37.233Z,100753.89
2017-12-06T21:09:04.768Z,100742.75
2017-12-06T21:11:32.256Z,100741.17
2017-12-06T21:13:59.777Z,100757.14
2017-12-06T21:19:01.052Z,100752.88
2017-12-06T21:21:28.542Z,100753.64
2017-12-06T21:23:56.069Z,100759.84
2017-12-06T21:26:24.356Z,100782.73
2017-12-06T21:28:51.900Z,100775.66
2017-12-06T21:31:19.413Z,100768.67
2017-12-06T21:33:46.913Z,100797.32
2017-12-06T21:36:14.675Z,100761.34
2017-12-06T21:38:43.060Z,100772.84
2017-12-06T21:41:10.540Z,100769.23
2017-12-06T21:43:38.050Z,100774.04
2017-12-06T21:46:05.568Z,100763.14
2017-12-06T21:48:33.113Z,100783.53
2017-12-06T21:51:00.605Z,100767.64
2017-12-06T21:53:28.135Z,100779.77
2017-12-06T21:55:55.606Z,100770.61
2017-12-06T21:58:23.155Z,100771.81
2017-12-06T22:00:50.651Z,100781.56
2017-12-06T22:03:18.149Z,100774.81
2017-12-06T22:05:45.643Z,100788.43
2017-12-06T22:08:13.206Z,100777.70
2017-12-06T22:10:40.743Z,100790.96
2017-12-06T22:13:08.230Z,100773.28
2017-12-06T22:15:36.372Z,100782.56
2017-12-06T22:18:03.869Z,100780.50
2017-12-06T22:20:34.643Z,100786.59
2017-12-06T22:23:02.132Z,100771.68
2017-12-06T22:25:29.676Z,100776.00
2017-12-06T22:27:57.194Z,100780.97
2017-12-06T22:30:26.650Z,100783.73
2017-12-06T22:32:54.127Z,100792.06
2017-12-06T22:35:21.647Z,100790.36
2017-12-06T22:37:50.013Z,100782.87
2017-12-06T22:40:17.497Z,100782.03
2017-12-06T22:42:46.178Z,100778.53
2017-12-06T22:45:17.363Z,100773.05
2017-12-06T22:47:44.861Z,100776.50
2017-12-06T22:50:12.352Z,100786.66
2017-12-06T22:52:39.855Z,100776.41
2017-12-06T22:55:07.326Z,100779.50
2017-12-06T22:57:34.816Z,100772.11
2017-12-06T23:00:02.303Z,100766.95
2017-12-06T23:02:29.831Z,100762.23
2017-12-06T23:04:57.309Z,100764.27
2017-12-06T23:07:24.860Z,100761.88
2017-12-06T23:09:57.930Z,100774.00
2017-12-06T23:12:26.544Z,100756.22
2017-12-06T23:14:54.164Z,100754.89
2017-12-06T23:17:21.637Z,100751.16
2017-12-06T23:19:49.115Z,100753.48
2017-12-06T23:22:16.765Z,100752.69
2017-12-06T23:24:44.230Z,100750.16
2017-12-06T23:27:11.711Z,100750.63
2017-12-06T23:29:39.238Z,100743.86
2017-12-06T23:32:06.712Z,100750.89
2017-12-06T23:34:34.197Z,100753.09
2017-12-06T23:37:01.691Z,100749.40
2017-12-06T23:39:29.192Z,100743.42
2017-12-06T23:41:56.672Z,100747.81
2017-12-06T23:44:24.158Z,100744.31
2017-12-06T23:46:51.647Z,100744.84
2017-12-06T23:49:19.134Z,100746.06
2017-12-06T23:51:46.714Z,100744.98
2017-12-06T23:54:14.198Z,100734.80
2017-12-06T23:56:41.735Z,100738.00
2017-12-06T23:59:09.227Z,100733.73
